Time;durP1;ratioP1;P1;durP2;ratioP2;P2;SDS_P1;SDS_P2;PMS_P1;PMS_P2;Temp;Humidity;BMP_temperature;BMP_pressure;BME280_temperature;BME280_humidity;BME280_pressure;Samples;Min_cycle;Max_cycle;Signal;HPM_P1;HPM_P2
2023/01/29 00:00:43;;;;;;;20.60;6.90;;;;;;;-4.75;100.00;100997.19;109382;1254;73682;-81
2023/01/29 00:03:33;;;;;;;17.90;7.50;;;;;;;-4.72;100.00;100999.56;109362;1252;60568;-81
2023/01/29 00:06:22;;;;;;;14.10;7.00;;;;;;;-4.68;100.00;100999.15;109334;1251;60792;-81
2023/01/29 00:09:12;;;;;;;17.20;6.90;;;;;;;-4.65;100.00;100998.16;109467;1253;73583;-81
2023/01/29 00:12:01;;;;;;;18.90;6.10;;;;;;;-4.66;100.00;100996.77;109427;1254;69540;-81
2023/01/29 00:14:53;;;;;;;16.40;6.70;;;;;;;-4.67;100.00;100994.05;109277;1252;72622;-81
2023/01/29 00:17:43;;;;;;;18.50;7.30;;;;;;;-4.68;100.00;100996.78;109378;1255;61135;-81
2023/01/29 00:20:32;;;;;;;18.70;7.40;;;;;;;-4.72;100.00;100991.79;109615;1253;60285;-81
2023/01/29 00:23:22;;;;;;;18.80;7.20;;;;;;;-4.71;100.00;100990.73;109298;1253;74793;-80
2023/01/29 00:26:10;;;;;;;17.80;7.10;;;;;;;-4.71;100.00;100986.50;109222;1254;68818;-81
2023/01/29 00:29:00;;;;;;;16.80;6.90;;;;;;;-4.73;100.00;100979.75;109272;1253;72592;-81
2023/01/29 00:31:49;;;;;;;16.90;6.70;;;;;;;-4.69;100.00;100980.94;109413;1252;61662;-81
2023/01/29 00:34:38;;;;;;;16.40;7.10;;;;;;;-4.67;100.00;100982.66;109395;1252;60110;-81
2023/01/29 00:37:27;;;;;;;25.00;7.30;;;;;;;-4.64;100.00;100984.01;109393;1251;74962;-81
2023/01/29 00:40:16;;;;;;;19.80;8.40;;;;;;;-4.63;100.00;100987.73;109299;1252;68167;-81
2023/01/29 00:46:14;;;;;;;14.20;6.20;;;;;;;-4.57;100.00;100992.40;109319;1251;60575;-80
2023/01/29 00:49:03;;;;;;;16.00;6.80;;;;;;;-4.56;100.00;100989.25;109393;1253;61140;-80
2023/01/29 00:54:59;;;;;;;16.70;7.20;;;;;;;-4.50;100.00;100996.86;109374;1253;69720;-81
2023/01/29 00:57:48;;;;;;;14.90;6.30;;;;;;;-4.50;100.00;100989.43;109402;1253;72459;-81
2023/01/29 01:00:37;;;;;;;16.60;7.10;;;;;;;-4.46;100.00;100984.86;109352;1254;59283;-81
2023/01/29 01:03:26;;;;;;;20.80;8.00;;;;;;;-4.46;100.00;100980.92;109415;1252;62003;-80
2023/01/29 01:06:15;;;;;;;16.10;6.60;;;;;;;-4.50;100.00;100982.95;109404;1252;73950;-81
2023/01/29 01:12:12;;;;;;;17.10;6.80;;;;;;;-4.59;100.00;100991.94;109369;1252;72365;-81
2023/01/29 01:15:00;;;;;;;17.00;6.80;;;;;;;-4.60;100.00;100993.29;109477;1254;62183;-81
2023/01/29 01:17:54;;;;;;;21.30;7.80;;;;;;;-4.57;100.00;100991.89;109307;1251;61635;-80
2023/01/29 01:20:44;;;;;;;18.60;8.00;;;;;;;-4.55;100.00;100994.66;109369;1254;74783;-81
2023/01/29 01:23:33;;;;;;;16.30;7.40;;;;;;;-4.54;100.00;100993.16;109301;1253;69432;-81
2023/01/29 01:26:25;;;;;;;15.10;5.70;;;;;;;-4.50;100.00;100994.90;109293;1254;71627;-80
2023/01/29 01:29:13;;;;;;;20.90;8.00;;;;;;;-4.47;100.00;100988.66;109269;1253;60430;-80
2023/01/29 01:32:02;;;;;;;22.10;7.90;;;;;;;-4.43;100.00;100982.05;109391;1253;61195;-81
2023/01/29 01:34:52;;;;;;;17.40;7.00;;;;;;;-4.42;100.00;100982.90;109408;1254;74950;-80
2023/01/29 01:37:41;;;;;;;23.20;8.10;;;;;;;-4.40;100.00;100978.08;109507;1254;68860;-80
2023/01/29 01:40:30;;;;;;;18.50;7.80;;;;;;;-4.40;100.00;100984.11;109328;1254;72306;-80
2023/01/29 01:43:19;;;;;;;17.80;7.10;;;;;;;-4.39;100.00;100988.52;109271;1253;59270;-81
2023/01/29 01:46:08;;;;;;;17.10;6.50;;;;;;;-4.37;100.00;100989.31;109192;1253;60392;-81
2023/01/29 01:49:04;;;;;;;21.20;8.50;;;;;;;-4.30;100.00;100991.27;109333;1253;75856;-81
2023/01/29 01:51:53;;;;;;;28.70;8.90;;;;;;;-4.29;100.00;100997.39;109352;1252;69725;-81
2023/01/29 01:54:42;;;;;;;19.70;7.70;;;;;;;-4.28;100.00;100993.53;109226;1252;74041;-81
2023/01/29 01:57:32;;;;;;;16.70;7.00;;;;;;;-4.23;100.00;100990.16;109395;1254;59597;-81
2023/01/29 02:00:22;;;;;;;21.40;8.90;;;;;;;-4.24;100.00;100994.23;109390;1253;61494;-81
2023/01/29 02:09:38;;;;;;;18.90;8.30;;;;;;;-4.14;100.00;100999.12;109390;1253;72430;-81
2023/01/29 02:12:30;;;;;;;16.90;7.20;;;;;;;-4.10;100.00;101003.66;109226;1254;62386;-81
2023/01/29 02:15:18;;;;;;;21.10;8.70;;;;;;;-4.04;100.00;101001.08;109401;1253;61167;-81
2023/01/29 02:18:08;;;;;;;29.40;10.10;;;;;;;-4.08;100.00;100998.77;109380;1254;74803;-81
2023/01/29 02:21:23;;;;;;;29.80;9.80;;;;;;;-4.08;100.00;100993.14;109464;1253;67797;-81
2023/01/29 02:24:16;;;;;;;19.70;7.10;;;;;;;-4.11;100.00;100986.09;109268;1252;72548;-81
2023/01/29 02:27:14;;;;;;;21.50;7.30;;;;;;;-4.12;100.00;100987.30;109401;1253;59571;-82
2023/01/29 02:30:12;;;;;;;37.40;11.40;;;;;;;-4.11;100.00;100988.23;109199;1253;60374;-81
2023/01/29 02:33:13;;;;;;;21.90;8.10;;;;;;;-4.05;100.00;100986.19;109334;1253;75100;-82
2023/01/29 02:36:20;;;;;;;27.90;8.40;;;;;;;-3.99;100.00;100990.61;109256;1254;68345;-81
2023/01/29 02:39:32;;;;;;;25.00;9.30;;;;;;;-3.96;100.00;100999.45;109328;1253;73530;-81
2023/01/29 02:42:34;;;;;;;12.00;5.80;;;;;;;-3.88;100.00;100996.02;109292;1254;61203;-81
2023/01/29 02:45:43;;;;;;;24.50;8.40;;;;;;;-3.86;100.00;100995.31;109411;1252;61278;-82
2023/01/29 02:48:40;;;;;;;23.40;9.10;;;;;;;-3.85;100.00;100989.85;109141;1254;74423;-81
2023/01/29 02:51:32;;;;;;;19.50;8.20;;;;;;;-3.81;100.00;100984.41;109157;1254;68177;-81
2023/01/29 02:54:32;;;;;;;;;;;;;;;-3.75;100.00;100987.88;109404;1254;72700;-81
2023/01/29 02:57:23;;;;;;;23.50;9.30;;;;;;;-3.75;100.00;100984.80;109272;1253;60582;-81
2023/01/29 03:00:13;;;;;;;16.00;6.90;;;;;;;-3.73;100.00;100985.14;109310;1253;59996;-81
2023/01/29 03:03:05;;;;;;;16.90;7.20;;;;;;;-3.73;100.00;100983.29;109305;1252;74781;-81
2023/01/29 03:05:58;;;;;;;18.00;6.20;;;;;;;-3.73;100.00;100976.02;109406;1254;69690;-81
2023/01/29 03:09:02;;;;;;;12.70;5.90;;;;;;;-3.73;100.00;100974.08;109302;1254;73804;-81
2023/01/29 03:11:53;;;;;;;14.50;6.90;;;;;;;-3.67;100.00;100972.18;109296;1254;61112;-81
2023/01/29 03:17:56;;;;;;;15.40;6.50;;;;;;;-3.68;100.00;100962.46;109211;1254;75082;-81
2023/01/29 03:20:49;;;;;;;15.30;6.70;;;;;;;-3.67;100.00;100957.32;109263;1254;68464;-81
2023/01/29 03:33:14;;;;;;;12.00;6.00;;;;;;;-3.61;100.00;100954.86;109350;1251;73825;-81
2023/01/29 03:36:12;;;;;;;17.60;6.50;;;;;;;-3.59;100.00;100955.91;109217;1256;69782;-81
2023/01/29 03:39:01;;;;;;;15.80;5.40;;;;;;;-3.56;100.00;100955.16;109283;1254;72311;-81
2023/01/29 03:41:52;;;;;;;13.90;6.20;;;;;;;-3.55;100.00;100957.27;109199;1254;62164;-82
2023/01/29 03:45:06;;;;;;;17.10;6.70;;;;;;;-3.53;100.00;100964.44;109360;1252;60021;-81
2023/01/29 03:48:11;;;;;;;11.00;5.50;;;;;;;-3.51;100.00;100972.64;109178;1252;73865;-82
2023/01/29 03:51:04;;;;;;;13.30;5.90;;;;;;;-3.51;100.00;100978.31;109291;1253;70364;-81
2023/01/29 03:54:07;;;;;;;11.80;5.50;;;;;;;-3.47;100.00;100987.33;109125;1253;73733;-81
2023/01/29 03:56:56;;;;;;;15.00;5.50;;;;;;;-3.46;100.00;100985.91;109234;1253;60706;-81
2023/01/29 04:00:01;;;;;;;14.40;6.00;;;;;;;-3.44;100.00;100991.61;109238;1254;59994;-81
2023/01/29 04:03:20;;;;;;;12.20;4.80;;;;;;;-3.42;100.00;100992.48;109349;1254;73845;-81
2023/01/29 04:06:16;;;;;;;17.30;5.70;;;;;;;-3.41;100.00;100993.47;109297;1253;68168;-81
2023/01/29 04:09:37;;;;;;;16.50;5.80;;;;;;;-3.39;100.00;100993.00;109210;1254;73654;-81
2023/01/29 04:12:34;;;;;;;16.30;6.50;;;;;;;-3.39;100.00;100987.28;109366;1254;60229;-81
2023/01/29 04:15:24;;;;;;;15.10;5.80;;;;;;;-3.37;100.00;100984.39;109198;1253;60351;-82
2023/01/29 04:18:13;;;;;;;14.00;5.40;;;;;;;-3.37;100.00;100985.66;109290;1253;75520;-81
2023/01/29 04:21:25;;;;;;;14.00;6.10;;;;;;;-3.38;100.00;100983.89;109388;1254;68507;-82
2023/01/29 04:24:14;;;;;;;14.20;6.00;;;;;;;-3.37;100.00;100981.05;109162;1254;73581;-82
2023/01/29 04:27:09;;;;;;;17.80;6.90;;;;;;;-3.38;100.00;100984.34;109266;1253;62418;-81
2023/01/29 04:30:17;;;;;;;13.60;6.50;;;;;;;-3.35;100.00;100982.61;109156;1254;61221;-81
2023/01/29 04:33:29;;;;;;;18.40;7.30;;;;;;;-3.37;100.00;100983.32;109324;1253;73528;-81
2023/01/29 04:36:31;;;;;;;15.10;5.90;;;;;;;-3.37;100.00;100984.94;109383;1253;69957;-81
2023/01/29 04:39:25;;;;;;;18.30;6.70;;;;;;;-3.36;100.00;100986.14;109239;1255;73225;-81
2023/01/29 04:42:20;;;;;;;14.20;6.70;;;;;;;-3.35;100.00;100991.85;109490;1254;62040;-81
2023/01/29 04:45:15;;;;;;;13.40;5.80;;;;;;;-3.33;100.00;100995.57;109442;1253;61406;-82
2023/01/29 04:48:28;;;;;;;17.10;6.60;;;;;;;-3.34;100.00;100996.94;109397;1254;73744;-82
2023/01/29 04:51:43;;;;;;;16.20;6.70;;;;;;;-3.35;100.00;100992.98;109207;1254;69599;-81
2023/01/29 04:55:10;;;;;;;13.40;6.20;;;;;;;-3.32;100.00;100995.03;109398;1254;72710;-82
2023/01/29 04:58:11;;;;;;;13.40;5.90;;;;;;;-3.31;100.00;100999.40;109184;1253;59609;-81
2023/01/29 05:00:59;;;;;;;15.10;6.60;;;;;;;-3.28;100.00;100998.02;109432;1252;61204;-81
2023/01/29 05:03:50;;;;;;;17.00;7.40;;;;;;;-3.25;100.00;100992.00;109321;1253;75027;-82
2023/01/29 05:06:39;;;;;;;17.10;7.20;;;;;;;-3.21;100.00;100988.61;109195;1254;69676;-81
2023/01/29 05:09:27;;;;;;;17.80;7.20;;;;;;;-3.19;100.00;100991.65;109043;1257;73905;-81
2023/01/29 05:12:17;;;;;;;20.40;6.70;;;;;;;-3.18;100.00;100997.94;108979;1256;60475;-81
2023/01/29 05:15:13;;;;;;;17.30;7.70;;;;;;;-3.17;100.00;100999.95;109140;1254;60639;-82
2023/01/29 05:18:02;;;;;;;21.90;7.70;;;;;;;-3.16;100.00;101004.44;109144;1253;75422;-82
2023/01/29 05:20:51;;;;;;;14.90;6.30;;;;;;;-3.14;100.00;101009.41;109239;1254;67687;-81
2023/01/29 05:23:51;;;;;;;19.30;7.00;;;;;;;-3.13;100.00;101006.09;109245;1254;72715;-82
2023/01/29 05:29:50;;;;;;;20.50;8.60;;;;;;;-3.11;100.00;101010.11;109073;1255;59984;-82
2023/01/29 05:32:39;;;;;;;18.60;7.40;;;;;;;-3.10;100.00;101007.47;109198;1254;73884;-81
2023/01/29 05:35:28;;;;;;;19.50;7.90;;;;;;;-3.10;100.00;101012.65;109152;1254;72960;-82
2023/01/29 05:38:17;;;;;;;22.50;7.40;;;;;;;-3.07;100.00;101015.88;109231;1254;72520;-81
2023/01/29 05:41:05;;;;;;;18.80;7.40;;;;;;;-3.04;100.00;101015.15;109248;1254;59247;-81
2023/01/29 05:43:54;;;;;;;23.90;8.60;;;;;;;-2.97;100.00;101017.13;109208;1254;60235;-81
2023/01/29 05:46:43;;;;;;;19.70;7.70;;;;;;;-2.95;100.00;101017.57;109197;1258;74641;-82
2023/01/29 05:49:32;;;;;;;19.00;7.40;;;;;;;-2.95;100.00;101017.00;109198;1254;70619;-81
2023/01/29 05:52:21;;;;;;;18.80;7.90;;;;;;;-2.95;100.00;101015.80;109374;1254;72357;-81
2023/01/29 05:55:10;;;;;;;17.20;7.80;;;;;;;-2.96;100.00;101016.11;109192;1254;61323;-82
2023/01/29 05:57:59;;;;;;;21.00;8.00;;;;;;;-2.95;100.00;101020.13;109223;1254;60306;-82
2023/01/29 06:00:48;;;;;;;22.80;8.10;;;;;;;-2.93;100.00;101018.93;109278;1257;72603;-81
2023/01/29 06:03:37;;;;;;;23.40;7.80;;;;;;;-2.92;100.00;101020.93;109251;1254;69574;-81
2023/01/29 06:06:26;;;;;;;19.10;7.40;;;;;;;-2.89;100.00;101024.90;109352;1254;71502;-82
2023/01/29 06:09:15;;;;;;;28.50;10.70;;;;;;;-2.89;100.00;101025.52;109398;1252;59577;-81
2023/01/29 06:12:07;;;;;;;21.40;8.10;;;;;;;-2.90;100.00;101023.23;109414;1252;61564;-82
2023/01/29 06:14:56;;;;;;;24.00;8.40;;;;;;;-2.87;100.00;101024.45;109467;1254;72578;-82
2023/01/29 06:17:45;;;;;;;22.00;8.40;;;;;;;-2.81;100.00;101022.94;109199;1254;249152;-82
2023/01/29 06:20:35;;;;;;;23.90;8.30;;;;;;;-2.85;100.00;101026.77;109341;1253;72682;-81
2023/01/29 06:23:24;;;;;;;18.60;7.70;;;;;;;-2.86;100.00;101022.73;109371;1253;60262;-81
2023/01/29 06:26:13;;;;;;;22.30;9.50;;;;;;;-2.86;100.00;101029.39;109439;1253;61564;-82
2023/01/29 06:29:02;;;;;;;19.20;7.90;;;;;;;-2.88;100.00;101027.05;109367;1254;74653;-82
2023/01/29 06:31:52;;;;;;;23.50;8.10;;;;;;;-2.86;100.00;101027.61;109390;1254;68565;-81
2023/01/29 06:34:41;;;;;;;17.90;7.20;;;;;;;-2.85;100.00;101030.29;109396;1254;72649;-82
2023/01/29 06:37:29;;;;;;;17.10;6.60;;;;;;;-2.81;100.00;101024.44;109454;1253;62148;-81
2023/01/29 06:40:18;;;;;;;22.80;8.00;;;;;;;-2.74;100.00;101030.12;109412;1252;60147;-81
2023/01/29 06:43:07;;;;;;;19.00;8.20;;;;;;;-2.68;100.00;101025.89;109398;1253;73644;-81
2023/01/29 06:45:56;;;;;;;16.30;7.30;;;;;;;-2.63;100.00;101026.69;109400;1254;69984;-81
2023/01/29 06:48:45;;;;;;;21.60;7.30;;;;;;;-2.60;100.00;101026.70;109391;1253;73623;-81
2023/01/29 06:51:33;;;;;;;15.00;7.30;;;;;;;-2.54;100.00;101025.98;109470;1256;60142;-82
2023/01/29 06:54:22;;;;;;;23.40;8.50;;;;;;;-2.44;100.00;101029.37;109217;1254;59712;-83
2023/01/29 06:57:11;;;;;;;18.20;7.50;;;;;;;-2.38;100.00;101028.39;109383;1254;73664;-82
2023/01/29 07:00:00;;;;;;;20.80;7.80;;;;;;;-2.33;100.00;101025.34;109403;1251;69756;-82
2023/01/29 07:02:49;;;;;;;19.60;7.80;;;;;;;-2.33;100.00;101023.17;109450;1253;73120;-82
2023/01/29 07:05:38;;;;;;;20.90;8.20;;;;;;;-2.32;100.00;101022.73;109304;1253;62173;-82
2023/01/29 07:08:27;;;;;;;19.10;8.20;;;;;;;-2.32;100.00;101027.17;109359;1254;61118;-82
2023/01/29 07:11:16;;;;;;;15.40;6.10;;;;;;;-2.30;100.00;101024.73;109390;1253;73711;-82
2023/01/29 07:14:05;;;;;;;16.80;6.40;;;;;;;-2.32;100.00;101023.42;109328;1253;70052;-82
2023/01/29 07:16:55;;;;;;;17.30;6.70;;;;;;;-2.32;100.00;101026.55;109484;1252;73616;-83
2023/01/29 07:19:43;;;;;;;20.50;8.10;;;;;;;-2.30;100.00;101026.23;109387;1252;61185;-82
2023/01/29 07:22:32;;;;;;;18.80;7.20;;;;;;;-2.28;100.00;101022.02;109369;1254;61288;-82
2023/01/29 07:25:21;;;;;;;15.50;6.00;;;;;;;-2.29;100.00;101030.73;109367;1254;73722;-82
2023/01/29 07:28:11;;;;;;;17.10;7.50;;;;;;;-2.28;100.00;101024.02;109286;1252;68499;-82
2023/01/29 07:30:59;;;;;;;22.70;8.60;;;;;;;-2.27;100.00;101020.84;109372;1252;72670;-82
2023/01/29 07:33:49;;;;;;;21.30;8.90;;;;;;;-2.23;100.00;101027.52;109305;1254;61176;-82
2023/01/29 07:36:37;;;;;;;17.90;6.90;;;;;;;-2.21;100.00;101025.96;109390;1253;61412;-82
2023/01/29 07:39:27;;;;;;;14.70;7.30;;;;;;;-2.20;100.00;101020.58;109368;1253;73746;-82
2023/01/29 07:42:16;;;;;;;20.40;8.60;;;;;;;-2.17;100.00;101024.10;109451;1254;68566;-82
2023/01/29 07:45:05;;;;;;;22.50;10.20;;;;;;;-2.19;100.00;101020.46;109282;1253;73816;-82
2023/01/29 07:47:54;;;;;;;14.90;6.10;;;;;;;-2.23;100.00;101019.09;109393;1253;61000;-82
2023/01/29 07:50:43;;;;;;;22.80;10.80;;;;;;;-2.27;100.00;101021.81;109416;1254;60137;-82
2023/01/29 07:53:32;;;;;;;19.70;8.00;;;;;;;-2.30;100.00;101019.27;109468;1252;73883;-82
2023/01/29 07:56:22;;;;;;;16.50;6.30;;;;;;;-2.27;100.00;101017.83;109354;1253;69124;-82
2023/01/29 07:59:10;;;;;;;14.80;7.20;;;;;;;-2.25;100.00;101024.41;109337;1252;73404;-82
2023/01/29 08:01:59;;;;;;;20.30;8.30;;;;;;;-2.28;100.00;101022.41;109313;1253;60292;-82
2023/01/29 08:04:49;;;;;;;17.20;6.50;;;;;;;-2.31;100.00;101024.73;109430;1253;61489;-82
2023/01/29 08:07:38;;;;;;;14.60;6.60;;;;;;;-2.30;100.00;101027.63;109319;1254;74859;-81
2023/01/29 08:10:27;;;;;;;16.70;6.30;;;;;;;-2.26;100.00;101034.45;109394;1254;69416;-82
2023/01/29 08:13:16;;;;;;;10.60;5.30;;;;;;;-2.16;100.00;101032.99;109247;1254;72665;-82
2023/01/29 08:16:05;;;;;;;12.60;5.40;;;;;;;-2.04;100.00;101034.05;109506;1252;59322;-82
2023/01/29 08:18:54;;;;;;;14.40;6.10;;;;;;;-1.92;100.00;101036.88;109380;1253;60007;-82
2023/01/29 08:21:43;;;;;;;11.70;5.60;;;;;;;-1.77;100.00;101038.66;109311;1254;73885;-81
2023/01/29 08:24:32;;;;;;;12.60;5.90;;;;;;;-1.68;100.00;101035.25;109276;1254;69608;-82
2023/01/29 08:27:41;;;;;;;11.60;5.40;;;;;;;-1.58;100.00;101035.14;109432;1252;71443;-83
2023/01/29 08:30:31;;;;;;;12.60;4.90;;;;;;;-1.58;100.00;101036.55;109352;1252;59346;-81
2023/01/29 08:33:20;;;;;;;12.70;5.60;;;;;;;-1.59;100.00;101032.77;109434;1253;60326;-81
2023/01/29 08:36:21;;;;;;;12.00;4.60;;;;;;;-1.62;100.00;101034.00;109377;1252;74578;-81
2023/01/29 08:39:10;;;;;;;12.20;5.30;;;;;;;-1.60;100.00;101029.36;109437;1252;69774;-81
2023/01/29 08:41:59;;;;;;;12.00;6.10;;;;;;;-1.59;100.00;101028.35;109332;1253;73451;-82
2023/01/29 08:44:48;;;;;;;10.30;5.30;;;;;;;-1.58;100.00;101032.25;109376;1253;60844;-82
2023/01/29 08:47:37;;;;;;;10.90;4.90;;;;;;;-1.58;100.00;101027.84;109352;1253;61535;-82
2023/01/29 08:50:26;;;;;;;9.70;5.00;;;;;;;-1.58;100.00;101029.84;109393;1252;72920;-82
2023/01/29 08:53:18;;;;;;;8.60;4.10;;;;;;;-1.60;100.00;101027.88;109386;1253;68619;-82
2023/01/29 08:56:07;;;;;;;9.20;5.50;;;;;;;-1.61;100.00;101021.73;109353;1253;74769;-82
2023/01/29 08:58:55;;;;;;;10.20;4.50;;;;;;;-1.60;100.00;101022.02;109283;1253;59339;-82
2023/01/29 09:01:45;;;;;;;13.10;5.70;;;;;;;-1.57;100.00;101023.94;109306;1254;61879;-82
2023/01/29 09:04:34;;;;;;;12.70;5.10;;;;;;;-1.49;100.00;101020.78;109441;1254;75084;-82
2023/01/29 09:07:23;;;;;;;8.10;4.60;;;;;;;-1.39;100.00;101017.25;109313;1256;68796;-83
2023/01/29 09:10:12;;;;;;;12.10;5.20;;;;;;;-1.26;100.00;101016.70;109317;1252;72652;-83
2023/01/29 09:13:01;;;;;;;11.80;5.30;;;;;;;-1.21;100.00;101017.95;109359;1254;59555;-83
2023/01/29 09:15:50;;;;;;;9.00;4.70;;;;;;;-1.17;100.00;101016.30;109459;1253;60239;-82
2023/01/29 09:18:38;;;;;;;10.30;5.10;;;;;;;-1.14;100.00;101010.49;109391;1252;74861;-83
2023/01/29 09:21:27;;;;;;;11.00;4.90;;;;;;;-1.10;100.00;101005.22;109377;1253;68524;-83
2023/01/29 09:24:16;;;;;;;9.60;4.60;;;;;;;-1.15;100.00;100999.17;109393;1252;73465;-82
2023/01/29 09:27:08;;;;;;;12.50;5.30;;;;;;;-1.22;100.00;100997.77;109349;1251;59581;-82
2023/01/29 09:29:57;;;;;;;13.30;5.40;;;;;;;-1.26;100.00;100997.30;109389;1252;60322;-83
2023/01/29 09:32:46;;;;;;;17.50;7.20;;;;;;;-1.23;100.00;100995.56;109324;1253;72552;-83
2023/01/29 09:35:46;;;;;;;12.20;5.50;;;;;;;-1.06;100.00;100997.20;109467;1253;69950;-83
2023/01/29 09:38:35;;;;;;;10.30;5.50;;;;;;;-0.89;100.00;100993.05;109289;1253;71931;-83
2023/01/29 09:42:02;;;;;;;10.20;4.70;;;;;;;-0.79;100.00;100992.49;109282;1253;59285;-83
2023/01/29 09:45:14;;;;;;;9.40;4.60;;;;;;;-0.69;100.00;100982.52;109304;1253;61071;-83
2023/01/29 09:48:08;;;;;;;15.60;6.40;;;;;;;-0.62;100.00;100985.23;109417;1252;73593;-82
2023/01/29 09:50:57;;;;;;;8.20;4.70;;;;;;;-0.57;100.00;100984.11;109181;1253;70668;-83
2023/01/29 09:53:51;;;;;;;11.40;4.70;;;;;;;-0.56;100.00;100980.94;109237;1253;73678;-82
2023/01/29 09:56:41;;;;;;;10.00;4.70;;;;;;;-0.55;100.00;100977.52;109332;1251;60817;-83
2023/01/29 09:59:30;;;;;;;8.60;4.30;;;;;;;-0.55;100.00;100975.70;109312;1253;61374;-83
2023/01/29 12:04:45;;;;;;;12.70;5.60;;;;;;;-0.98;100.00;100884.54;106004;1288;600269;-82
2023/01/29 12:07:34;;;;;;;12.30;5.20;;;;;;;-0.90;100.00;100884.23;108403;1265;61503;-82
2023/01/29 12:10:34;;;;;;;10.20;4.70;;;;;;;-0.76;100.00;100878.25;108396;1266;60161;-82
2023/01/29 12:13:26;;;;;;;11.50;5.60;;;;;;;-0.58;100.00;100883.45;108319;1266;72048;-83
2023/01/29 12:16:15;;;;;;;14.20;7.00;;;;;;;-0.45;100.00;100883.95;108504;1265;69144;-83
2023/01/29 12:19:20;;;;;;;13.70;5.60;;;;;;;-0.41;100.00;100883.29;108591;1259;145789;-84
2023/01/29 12:22:11;;;;;;;11.70;5.70;;;;;;;-0.46;100.00;100887.42;108671;1265;60775;-83
2023/01/29 12:25:06;;;;;;;19.60;7.30;;;;;;;-0.50;100.00;100886.56;108768;1260;60718;-83
2023/01/29 12:28:16;;;;;;;14.20;5.20;;;;;;;-0.45;100.00;100884.65;108662;1260;73141;-81
2023/01/29 12:31:11;;;;;;;14.30;6.30;;;;;;;-0.34;100.00;100887.29;108786;1259;69630;-81
2023/01/29 12:34:30;;;;;;;11.40;5.70;;;;;;;-0.27;100.00;100883.08;108640;1260;73601;-81
2023/01/29 12:37:38;;;;;;;16.10;7.20;;;;;;;-0.23;100.00;100883.39;108533;1260;59494;-82
2023/01/29 12:40:37;;;;;;;17.60;6.60;;;;;;;-0.18;100.00;100888.52;108770;1259;60197;-82
2023/01/29 12:43:40;;;;;;;11.30;6.10;;;;;;;-0.13;100.00;100892.88;108719;1260;74222;-82
2023/01/29 12:46:37;;;;;;;14.80;5.90;;;;;;;-0.14;100.00;100895.77;108817;1260;70221;-82
2023/01/29 12:49:31;;;;;;;21.10;8.60;;;;;;;-0.14;100.00;100898.11;108680;1261;72327;-82
2023/01/29 12:52:35;;;;;;;12.90;6.60;;;;;;;-0.23;100.00;100898.80;108773;1260;60045;-82
2023/01/29 12:55:27;;;;;;;10.60;5.90;;;;;;;-0.34;100.00;100899.85;108720;1259;60367;-82
2023/01/29 12:58:20;;;;;;;14.90;7.30;;;;;;;-0.38;100.00;100900.45;108790;1260;74013;-82
2023/01/29 13:01:16;;;;;;;16.60;6.70;;;;;;;-0.43;100.00;100901.83;108740;1260;68643;-82
2023/01/29 13:04:14;;;;;;;15.90;6.60;;;;;;;-0.46;100.00;100900.69;108717;1260;73550;-82
2023/01/29 13:07:18;;;;;;;14.60;5.90;;;;;;;-0.42;100.00;100902.44;108737;1260;60832;-81
2023/01/29 13:10:11;;;;;;;17.90;6.40;;;;;;;-0.46;100.00;100899.48;108766;1260;61640;-81
2023/01/29 13:13:05;;;;;;;14.30;6.60;;;;;;;-0.50;100.00;100898.59;108829;1259;74472;-82
2023/01/29 13:15:54;;;;;;;23.80;7.50;;;;;;;-0.52;100.00;100898.98;108681;1259;67822;-81
2023/01/29 13:18:49;;;;;;;16.30;6.40;;;;;;;-0.53;100.00;100899.23;108732;1260;73606;-82
2023/01/29 13:21:42;;;;;;;14.70;6.80;;;;;;;-0.51;100.00;100893.96;108727;1260;59229;-82
2023/01/29 13:24:38;;;;;;;13.60;6.30;;;;;;;-0.47;100.00;100897.98;108713;1259;61235;-82
2023/01/29 13:27:29;;;;;;;14.00;5.50;;;;;;;-0.46;100.00;100902.25;108702;1260;74277;-82
2023/01/29 13:30:25;;;;;;;16.60;6.90;;;;;;;-0.45;100.00;100896.27;108814;1259;68424;-82
2023/01/29 13:33:20;;;;;;;18.90;7.20;;;;;;;-0.44;100.00;100899.41;108734;1260;72858;-82
2023/01/29 13:36:13;;;;;;;17.50;6.70;;;;;;;-0.42;100.00;100901.00;108730;1260;59415;-83
2023/01/29 13:39:07;;;;;;;15.80;6.20;;;;;;;-0.44;100.00;100901.65;108824;1259;61145;-82
2023/01/29 13:41:57;;;;;;;9.80;5.10;;;;;;;-0.45;100.00;100901.23;108744;1259;74282;-83
2023/01/29 13:44:50;;;;;;;16.10;6.60;;;;;;;-0.46;100.00;100899.08;108657;1259;69931;-83
2023/01/29 13:47:39;;;;;;;12.80;6.10;;;;;;;-0.48;100.00;100899.55;108771;1259;73769;-83
2023/01/29 13:50:39;;;;;;;14.00;6.20;;;;;;;-0.52;100.00;100905.92;108779;1260;60366;-83
2023/01/29 13:53:32;;;;;;;15.20;6.80;;;;;;;-0.57;100.00;100906.59;108816;1259;61055;-83
2023/01/29 13:56:29;;;;;;;;;;;;;;;-0.59;100.00;100903.27;108756;1259;73080;-85
2023/01/29 13:59:47;;;;;;;21.00;8.20;;;;;;;-0.65;100.00;100896.16;108802;1259;68867;-82
2023/01/29 14:02:37;;;;;;;19.10;8.80;;;;;;;-0.72;100.00;100893.52;108782;1259;74841;-82
2023/01/29 14:05:28;;;;;;;21.30;7.40;;;;;;;-0.76;100.00;100893.60;108911;1257;59236;-82
2023/01/29 14:08:37;;;;;;;19.00;7.90;;;;;;;-0.79;100.00;100894.05;109017;1256;60045;-81
2023/01/29 14:11:33;;;;;;;20.80;8.40;;;;;;;-0.81;100.00;100894.10;108979;1258;73928;-81
2023/01/29 14:14:47;;;;;;;19.60;8.80;;;;;;;-0.84;100.00;100896.59;108950;1257;69721;-81
2023/01/29 14:17:36;;;;;;;20.40;9.20;;;;;;;-0.91;100.00;100897.56;109004;1256;72668;-81
2023/01/29 14:20:40;;;;;;;20.70;8.70;;;;;;;-0.95;100.00;100906.55;109004;1256;59583;-80
2023/01/29 14:23:50;;;;;;;26.80;9.70;;;;;;;-1.02;100.00;100906.01;108946;1257;61503;-80
2023/01/29 14:26:44;;;;;;;20.70;8.90;;;;;;;-1.05;100.00;100905.67;108900;1257;73875;-80
2023/01/29 14:29:36;;;;;;;16.90;8.10;;;;;;;-1.10;100.00;100907.57;108920;1256;68836;-80
2023/01/29 14:32:26;;;;;;;20.50;9.30;;;;;;;-1.15;100.00;100911.33;108833;1256;72628;-82
2023/01/29 14:35:22;;;;;;;22.30;9.90;;;;;;;-1.17;100.00;100911.96;108959;1256;61179;-82
2023/01/29 14:38:11;;;;;;;26.80;10.90;;;;;;;-1.16;100.00;100909.52;109346;1252;59340;-82
2023/01/29 14:41:30;;;;;;;23.00;10.00;;;;;;;-1.16;100.00;100913.42;109233;1253;72805;-82
2023/01/29 14:44:44;;;;;;;21.80;9.70;;;;;;;-1.16;100.00;100910.63;109264;1253;69771;-82
2023/01/29 14:47:34;;;;;;;23.20;9.40;;;;;;;-1.17;100.00;100912.41;109338;1253;72693;-82
2023/01/29 14:50:31;;;;;;;18.00;9.40;;;;;;;-1.17;100.00;100909.56;109276;1253;62355;-82
2023/01/29 14:53:30;;;;;;;22.00;10.60;;;;;;;-1.17;100.00;100912.30;109279;1253;60325;-82
2023/01/29 14:56:35;;;;;;;25.40;10.70;;;;;;;-1.18;100.00;100911.66;109409;1253;74211;-82
2023/01/29 14:59:36;;;;;;;27.50;11.00;;;;;;;-1.18;100.00;100911.12;109447;1251;68733;-81
2023/01/29 15:02:42;;;;;;;26.10;10.60;;;;;;;-1.18;100.00;100906.59;109164;1253;73634;-82
2023/01/29 15:05:34;;;;;;;23.50;9.80;;;;;;;-1.17;100.00;100904.52;109274;1253;62142;-81
2023/01/29 15:08:46;;;;;;;20.60;9.00;;;;;;;-1.17;100.00;100906.80;109278;1252;60477;-81
2023/01/29 15:12:02;;;;;;;24.80;8.90;;;;;;;-1.18;100.00;100911.75;109184;1253;72118;-81
2023/01/29 15:15:12;;;;;;;23.10;8.90;;;;;;;-1.18;100.00;100914.84;109335;1253;69945;-81
2023/01/29 15:18:04;;;;;;;24.10;10.20;;;;;;;-1.18;100.00;100915.84;109275;1253;72656;-81
2023/01/29 15:21:04;;;;;;;22.90;10.20;;;;;;;-1.17;100.00;100915.59;109235;1252;59473;-81
2023/01/29 15:24:03;;;;;;;25.60;9.80;;;;;;;-1.18;100.00;100912.69;109367;1252;59687;-82
2023/01/29 15:26:51;;;;;;;25.30;9.20;;;;;;;-1.19;100.00;100910.24;109364;1252;74095;-81
2023/01/29 15:29:41;;;;;;;24.60;10.30;;;;;;;-1.20;100.00;100914.28;109260;1252;69640;-82
2023/01/29 15:32:38;;;;;;;26.80;9.40;;;;;;;-1.21;100.00;100912.13;109163;1253;73218;-82
2023/01/29 15:35:27;;;;;;;25.20;9.80;;;;;;;-1.24;100.00;100911.85;109196;1252;59250;-82